sensor_id;sensor_type;location;lat;lon;timestamp;P1;durP1;ratioP1;P2;durP2;ratioP2
19643;SDS011;9970;-36.854;174.870;2023-11-25T00:02:08;3.30;;;1.20;;
19643;SDS011;9970;-36.854;174.870;2023-11-25T00:04:42;1.13;;;0.93;;
19643;SDS011;9970;-36.854;174.870;2023-11-25T00:07:15;3.53;;;1.00;;
19643;SDS011;9970;-36.854;174.870;2023-11-25T00:09:48;1.30;;;1.20;;
19643;SDS011;9970;-36.854;174.870;2023-11-25T00:12:23;2.57;;;1.30;;
19643;SDS011;9970;-36.854;174.870;2023-11-25T00:14:56;0.80;;;0.80;;
19643;SDS011;9970;-36.854;174.870;2023-11-25T00:17:29;1.70;;;1.40;;
19643;SDS011;9970;-36.854;174.870;2023-11-25T00:20:03;1.10;;;1.00;;
19643;SDS011;9970;-36.854;174.870;2023-11-25T00:22:37;1.23;;;1.03;;
19643;SDS011;9970;-36.854;174.870;2023-11-25T00:25:10;2.43;;;0.87;;
19643;SDS011;9970;-36.854;174.870;2023-11-25T00:27:43;1.00;;;0.87;;
19643;SDS011;9970;-36.854;174.870;2023-11-25T00:30:16;1.37;;;1.10;;
19643;SDS011;9970;-36.854;174.870;2023-11-25T00:32:50;1.13;;;1.13;;
19643;SDS011;9970;-36.854;174.870;2023-11-25T00:35:24;1.27;;;1.10;;
19643;SDS011;9970;-36.854;174.870;2023-11-25T00:37:57;1.20;;;1.10;;
19643;SDS011;9970;-36.854;174.870;2023-11-25T00:40:30;1.13;;;0.77;;
19643;SDS011;9970;-36.854;174.870;2023-11-25T00:43:03;0.90;;;0.90;;
19643;SDS011;9970;-36.854;174.870;2023-11-25T00:45:36;0.80;;;0.80;;
19643;SDS011;9970;-36.854;174.870;2023-11-25T00:48:09;2.30;;;1.43;;
19643;SDS011;9970;-36.854;174.870;2023-11-25T00:50:42;2.90;;;1.07;;
19643;SDS011;9970;-36.854;174.870;2023-11-25T00:53:16;0.90;;;0.90;;
19643;SDS011;9970;-36.854;174.870;2023-11-25T00:55:49;1.17;;;0.90;;
19643;SDS011;9970;-36.854;174.870;2023-11-25T00:58:23;1.70;;;0.80;;
19643;SDS011;9970;-36.854;174.870;2023-11-25T01:00:56;1.60;;;0.90;;
19643;SDS011;9970;-36.854;174.870;2023-11-25T01:03:29;1.03;;;0.63;;
19643;SDS011;9970;-36.854;174.870;2023-11-25T01:06:07;2.50;;;0.80;;
19643;SDS011;9970;-36.854;174.870;2023-11-25T01:08:40;3.33;;;0.90;;
19643;SDS011;9970;-36.854;174.870;2023-11-25T01:11:15;0.80;;;0.80;;
19643;SDS011;9970;-36.854;174.870;2023-11-25T01:13:47;1.73;;;1.10;;
19643;SDS011;9970;-36.854;174.870;2023-11-25T01:16:21;1.70;;;0.93;;
19643;SDS011;9970;-36.854;174.870;2023-11-25T01:18:56;1.00;;;1.00;;
19643;SDS011;9970;-36.854;174.870;2023-11-25T01:21:29;3.93;;;1.00;;
19643;SDS011;9970;-36.854;174.870;2023-11-25T01:24:02;1.07;;;0.90;;
19643;SDS011;9970;-36.854;174.870;2023-11-25T01:26:36;1.93;;;1.13;;
19643;SDS011;9970;-36.854;174.870;2023-11-25T01:29:09;1.40;;;1.30;;
19643;SDS011;9970;-36.854;174.870;2023-11-25T01:31:42;3.87;;;1.87;;
19643;SDS011;9970;-36.854;174.870;2023-11-25T01:34:15;2.73;;;1.10;;
19643;SDS011;9970;-36.854;174.870;2023-11-25T01:36:48;1.57;;;1.03;;
19643;SDS011;9970;-36.854;174.870;2023-11-25T01:39:21;0.90;;;0.90;;
19643;SDS011;9970;-36.854;174.870;2023-11-25T01:41:59;4.20;;;1.10;;
19643;SDS011;9970;-36.854;174.870;2023-11-25T01:44:32;8.03;;;1.17;;
19643;SDS011;9970;-36.854;174.870;2023-11-25T01:47:06;2.77;;;1.10;;
19643;SDS011;9970;-36.854;174.870;2023-11-25T01:49:44;2.00;;;0.90;;
19643;SDS011;9970;-36.854;174.870;2023-11-25T01:52:17;5.13;;;1.50;;
19643;SDS011;9970;-36.854;174.870;2023-11-25T01:54:52;1.63;;;1.53;;
19643;SDS011;9970;-36.854;174.870;2023-11-25T01:57:25;1.73;;;1.27;;
19643;SDS011;9970;-36.854;174.870;2023-11-25T02:00:01;2.03;;;1.10;;
19643;SDS011;9970;-36.854;174.870;2023-11-25T02:02:35;12.33;;;1.83;;
19643;SDS011;9970;-36.854;174.870;2023-11-25T02:05:10;9.87;;;1.10;;
19643;SDS011;9970;-36.854;174.870;2023-11-25T02:07:43;3.10;;;1.17;;
19643;SDS011;9970;-36.854;174.870;2023-11-25T02:10:16;5.13;;;1.13;;
19643;SDS011;9970;-36.854;174.870;2023-11-25T02:12:49;1.30;;;1.20;;
19643;SDS011;9970;-36.854;174.870;2023-11-25T02:15:22;2.20;;;1.10;;
19643;SDS011;9970;-36.854;174.870;2023-11-25T02:17:55;2.27;;;1.10;;
19643;SDS011;9970;-36.854;174.870;2023-11-25T02:20:32;1.47;;;1.20;;
19643;SDS011;9970;-36.854;174.870;2023-11-25T02:23:16;5.60;;;1.67;;
19643;SDS011;9970;-36.854;174.870;2023-11-25T02:25:51;1.37;;;1.20;;
19643;SDS011;9970;-36.854;174.870;2023-11-25T02:28:29;9.10;;;1.40;;
19643;SDS011;9970;-36.854;174.870;2023-11-25T02:31:04;1.93;;;1.33;;
19643;SDS011;9970;-36.854;174.870;2023-11-25T02:33:37;2.23;;;1.27;;
19643;SDS011;9970;-36.854;174.870;2023-11-25T02:36:10;2.33;;;1.10;;
19643;SDS011;9970;-36.854;174.870;2023-11-25T02:38:44;3.80;;;1.00;;
19643;SDS011;9970;-36.854;174.870;2023-11-25T02:41:17;1.13;;;1.10;;
19643;SDS011;9970;-36.854;174.870;2023-11-25T02:43:50;1.90;;;1.40;;
19643;SDS011;9970;-36.854;174.870;2023-11-25T02:46:24;4.40;;;1.60;;
19643;SDS011;9970;-36.854;174.870;2023-11-25T02:48:57;8.20;;;1.13;;
19643;SDS011;9970;-36.854;174.870;2023-11-25T02:51:30;1.00;;;1.00;;
19643;SDS011;9970;-36.854;174.870;2023-11-25T02:54:03;6.70;;;2.30;;
19643;SDS011;9970;-36.854;174.870;2023-11-25T02:56:36;4.30;;;1.70;;
19643;SDS011;9970;-36.854;174.870;2023-11-25T02:59:09;2.30;;;1.37;;
19643;SDS011;9970;-36.854;174.870;2023-11-25T03:01:42;4.83;;;2.03;;
19643;SDS011;9970;-36.854;174.870;2023-11-25T03:04:46;3.67;;;1.20;;
19643;SDS011;9970;-36.854;174.870;2023-11-25T03:07:20;2.73;;;1.67;;
19643;SDS011;9970;-36.854;174.870;2023-11-25T03:09:54;5.53;;;2.03;;
19643;SDS011;9970;-36.854;174.870;2023-11-25T03:12:28;4.80;;;1.50;;
19643;SDS011;9970;-36.854;174.870;2023-11-25T03:15:01;2.50;;;2.30;;
19643;SDS011;9970;-36.854;174.870;2023-11-25T03:17:35;4.53;;;1.40;;
19643;SDS011;9970;-36.854;174.870;2023-11-25T03:20:08;1.33;;;1.00;;
19643;SDS011;9970;-36.854;174.870;2023-11-25T03:22:42;1.50;;;1.40;;
19643;SDS011;9970;-36.854;174.870;2023-11-25T03:25:15;3.80;;;1.23;;
19643;SDS011;9970;-36.854;174.870;2023-11-25T03:27:48;5.70;;;1.83;;
19643;SDS011;9970;-36.854;174.870;2023-11-25T03:30:21;2.23;;;2.03;;
19643;SDS011;9970;-36.854;174.870;2023-11-25T03:32:55;2.33;;;2.13;;
19643;SDS011;9970;-36.854;174.870;2023-11-25T03:35:28;1.50;;;1.40;;
19643;SDS011;9970;-36.854;174.870;2023-11-25T03:38:01;2.13;;;1.20;;
19643;SDS011;9970;-36.854;174.870;2023-11-25T03:40:34;5.50;;;1.70;;
19643;SDS011;9970;-36.854;174.870;2023-11-25T03:43:07;6.87;;;2.37;;
19643;SDS011;9970;-36.854;174.870;2023-11-25T03:45:41;5.77;;;1.73;;
19643;SDS011;9970;-36.854;174.870;2023-11-25T03:48:18;9.07;;;1.80;;
19643;SDS011;9970;-36.854;174.870;2023-11-25T03:50:50;1.97;;;1.20;;
19643;SDS011;9970;-36.854;174.870;2023-11-25T03:53:24;4.03;;;1.87;;
19643;SDS011;9970;-36.854;174.870;2023-11-25T03:55:57;2.60;;;1.80;;
19643;SDS011;9970;-36.854;174.870;2023-11-25T03:58:30;3.40;;;2.70;;
19643;SDS011;9970;-36.854;174.870;2023-11-25T04:01:03;4.30;;;1.30;;
19643;SDS011;9970;-36.854;174.870;2023-11-25T04:03:36;6.03;;;1.80;;
19643;SDS011;9970;-36.854;174.870;2023-11-25T04:06:09;3.63;;;1.63;;
19643;SDS011;9970;-36.854;174.870;2023-11-25T04:08:43;5.10;;;1.80;;
19643;SDS011;9970;-36.854;174.870;2023-11-25T04:11:16;3.87;;;1.60;;
19643;SDS011;9970;-36.854;174.870;2023-11-25T04:13:49;6.53;;;1.90;;
19643;SDS011;9970;-36.854;174.870;2023-11-25T04:16:24;5.60;;;1.50;;
19643;SDS011;9970;-36.854;174.870;2023-11-25T04:18:57;1.93;;;1.73;;
19643;SDS011;9970;-36.854;174.870;2023-11-25T04:21:30;1.63;;;1.50;;
19643;SDS011;9970;-36.854;174.870;2023-11-25T04:24:08;2.07;;;1.20;;
19643;SDS011;9970;-36.854;174.870;2023-11-25T04:26:38;3.67;;;1.10;;
19643;SDS011;9970;-36.854;174.870;2023-11-25T04:29:11;1.80;;;1.20;;
19643;SDS011;9970;-36.854;174.870;2023-11-25T04:31:44;7.33;;;1.33;;
19643;SDS011;9970;-36.854;174.870;2023-11-25T04:34:18;7.83;;;1.47;;
19643;SDS011;9970;-36.854;174.870;2023-11-25T04:36:55;2.10;;;1.20;;
19643;SDS011;9970;-36.854;174.870;2023-11-25T04:39:28;3.77;;;1.13;;
19643;SDS011;9970;-36.854;174.870;2023-11-25T04:42:01;2.03;;;1.30;;
19643;SDS011;9970;-36.854;174.870;2023-11-25T04:44:34;6.47;;;1.57;;
19643;SDS011;9970;-36.854;174.870;2023-11-25T04:47:07;3.90;;;1.40;;
19643;SDS011;9970;-36.854;174.870;2023-11-25T04:49:41;1.13;;;1.13;;
19643;SDS011;9970;-36.854;174.870;2023-11-25T04:52:14;5.23;;;1.87;;
19643;SDS011;9970;-36.854;174.870;2023-11-25T04:54:47;6.57;;;2.30;;
19643;SDS011;9970;-36.854;174.870;2023-11-25T04:57:21;5.87;;;2.53;;
19643;SDS011;9970;-36.854;174.870;2023-11-25T04:59:54;2.23;;;1.70;;
19643;SDS011;9970;-36.854;174.870;2023-11-25T05:02:28;2.00;;;1.70;;
19643;SDS011;9970;-36.854;174.870;2023-11-25T05:05:01;6.73;;;1.70;;
19643;SDS011;9970;-36.854;174.870;2023-11-25T05:07:35;3.20;;;1.20;;
19643;SDS011;9970;-36.854;174.870;2023-11-25T05:10:08;2.00;;;1.50;;
19643;SDS011;9970;-36.854;174.870;2023-11-25T05:12:41;2.60;;;1.57;;
19643;SDS011;9970;-36.854;174.870;2023-11-25T05:15:14;2.03;;;1.57;;
19643;SDS011;9970;-36.854;174.870;2023-11-25T05:17:48;2.70;;;1.50;;
19643;SDS011;9970;-36.854;174.870;2023-11-25T05:20:23;3.43;;;1.73;;
19643;SDS011;9970;-36.854;174.870;2023-11-25T05:22:56;2.67;;;1.27;;
19643;SDS011;9970;-36.854;174.870;2023-11-25T05:25:31;2.30;;;2.03;;
19643;SDS011;9970;-36.854;174.870;2023-11-25T05:28:04;4.73;;;1.43;;
19643;SDS011;9970;-36.854;174.870;2023-11-25T05:30:37;5.40;;;1.70;;
19643;SDS011;9970;-36.854;174.870;2023-11-25T05:33:10;2.43;;;1.30;;
19643;SDS011;9970;-36.854;174.870;2023-11-25T05:35:43;3.47;;;1.43;;
19643;SDS011;9970;-36.854;174.870;2023-11-25T05:38:16;2.50;;;1.83;;
19643;SDS011;9970;-36.854;174.870;2023-11-25T05:40:49;1.57;;;0.80;;
19643;SDS011;9970;-36.854;174.870;2023-11-25T05:43:22;1.10;;;1.00;;
19643;SDS011;9970;-36.854;174.870;2023-11-25T05:46:00;1.17;;;1.00;;
19643;SDS011;9970;-36.854;174.870;2023-11-25T05:48:29;0.87;;;0.80;;
19643;SDS011;9970;-36.854;174.870;2023-11-25T05:51:02;0.67;;;0.67;;
19643;SDS011;9970;-36.854;174.870;2023-11-25T05:53:35;0.60;;;0.60;;
19643;SDS011;9970;-36.854;174.870;2023-11-25T05:56:08;0.60;;;0.60;;
19643;SDS011;9970;-36.854;174.870;2023-11-25T05:58:41;0.90;;;0.77;;
19643;SDS011;9970;-36.854;174.870;2023-11-25T06:01:14;0.63;;;0.60;;
19643;SDS011;9970;-36.854;174.870;2023-11-25T06:03:47;1.17;;;0.70;;
19643;SDS011;9970;-36.854;174.870;2023-11-25T06:06:23;1.30;;;1.17;;
19643;SDS011;9970;-36.854;174.870;2023-11-25T06:09:02;2.33;;;0.90;;
19643;SDS011;9970;-36.854;174.870;2023-11-25T06:11:30;2.93;;;0.90;;
19643;SDS011;9970;-36.854;174.870;2023-11-25T06:14:03;0.97;;;0.70;;
19643;SDS011;9970;-36.854;174.870;2023-11-25T06:16:36;0.70;;;0.70;;
19643;SDS011;9970;-36.854;174.870;2023-11-25T06:19:10;1.10;;;1.00;;
19643;SDS011;9970;-36.854;174.870;2023-11-25T06:21:45;1.30;;;1.27;;
19643;SDS011;9970;-36.854;174.870;2023-11-25T06:24:18;1.83;;;0.90;;
19643;SDS011;9970;-36.854;174.870;2023-11-25T06:26:51;0.60;;;0.60;;
19643;SDS011;9970;-36.854;174.870;2023-11-25T06:29:24;1.43;;;0.77;;
19643;SDS011;9970;-36.854;174.870;2023-11-25T06:31:57;0.73;;;0.63;;
19643;SDS011;9970;-36.854;174.870;2023-11-25T06:34:30;0.80;;;0.80;;
19643;SDS011;9970;-36.854;174.870;2023-11-25T06:37:04;0.73;;;0.70;;
19643;SDS011;9970;-36.854;174.870;2023-11-25T06:39:37;1.17;;;0.80;;
19643;SDS011;9970;-36.854;174.870;2023-11-25T06:42:10;0.83;;;0.83;;
19643;SDS011;9970;-36.854;174.870;2023-11-25T06:44:43;0.93;;;0.93;;
19643;SDS011;9970;-36.854;174.870;2023-11-25T06:47:17;1.43;;;1.33;;
19643;SDS011;9970;-36.854;174.870;2023-11-25T06:49:51;1.87;;;1.77;;
19643;SDS011;9970;-36.854;174.870;2023-11-25T06:52:24;1.07;;;1.00;;
19643;SDS011;9970;-36.854;174.870;2023-11-25T06:54:57;0.60;;;0.60;;
19643;SDS011;9970;-36.854;174.870;2023-11-25T06:57:30;0.83;;;0.83;;
19643;SDS011;9970;-36.854;174.870;2023-11-25T07:00:04;0.60;;;0.60;;
19643;SDS011;9970;-36.854;174.870;2023-11-25T07:02:39;0.70;;;0.70;;
19643;SDS011;9970;-36.854;174.870;2023-11-25T07:05:12;1.33;;;0.70;;
19643;SDS011;9970;-36.854;174.870;2023-11-25T07:07:45;0.77;;;0.77;;
19643;SDS011;9970;-36.854;174.870;2023-11-25T07:10:18;4.40;;;0.80;;
19643;SDS011;9970;-36.854;174.870;2023-11-25T07:12:51;0.77;;;0.77;;
19643;SDS011;9970;-36.854;174.870;2023-11-25T07:15:24;0.83;;;0.83;;
19643;SDS011;9970;-36.854;174.870;2023-11-25T07:17:57;0.90;;;0.90;;
19643;SDS011;9970;-36.854;174.870;2023-11-25T07:20:35;0.90;;;0.90;;
19643;SDS011;9970;-36.854;174.870;2023-11-25T07:23:08;0.80;;;0.77;;
19643;SDS011;9970;-36.854;174.870;2023-11-25T07:25:41;1.90;;;0.70;;
19643;SDS011;9970;-36.854;174.870;2023-11-25T07:28:15;0.80;;;0.80;;
19643;SDS011;9970;-36.854;174.870;2023-11-25T07:30:52;1.13;;;1.03;;
19643;SDS011;9970;-36.854;174.870;2023-11-25T07:33:26;1.00;;;1.00;;
19643;SDS011;9970;-36.854;174.870;2023-11-25T07:35:59;1.00;;;1.00;;
19643;SDS011;9970;-36.854;174.870;2023-11-25T07:38:32;1.43;;;1.30;;
19643;SDS011;9970;-36.854;174.870;2023-11-25T07:41:05;2.40;;;2.20;;
19643;SDS011;9970;-36.854;174.870;2023-11-25T07:43:40;5.60;;;2.10;;
19643;SDS011;9970;-36.854;174.870;2023-11-25T07:46:14;3.13;;;2.00;;
19643;SDS011;9970;-36.854;174.870;2023-11-25T07:48:47;3.37;;;2.23;;
19643;SDS011;9970;-36.854;174.870;2023-11-25T07:51:20;3.77;;;3.13;;
19643;SDS011;9970;-36.854;174.870;2023-11-25T07:53:54;3.07;;;2.77;;
19643;SDS011;9970;-36.854;174.870;2023-11-25T07:56:27;7.40;;;2.40;;
19643;SDS011;9970;-36.854;174.870;2023-11-25T07:59:00;3.53;;;2.10;;
19643;SDS011;9970;-36.854;174.870;2023-11-25T08:01:33;11.37;;;2.93;;
19643;SDS011;9970;-36.854;174.870;2023-11-25T08:04:07;3.50;;;2.60;;
19643;SDS011;9970;-36.854;174.870;2023-11-25T08:06:39;3.63;;;1.97;;
19643;SDS011;9970;-36.854;174.870;2023-11-25T08:09:12;3.50;;;2.33;;
19643;SDS011;9970;-36.854;174.870;2023-11-25T08:11:46;3.90;;;1.50;;
19643;SDS011;9970;-36.854;174.870;2023-11-25T08:14:20;3.80;;;2.60;;
19643;SDS011;9970;-36.854;174.870;2023-11-25T08:16:53;5.13;;;1.97;;
19643;SDS011;9970;-36.854;174.870;2023-11-25T08:19:26;4.50;;;2.23;;
19643;SDS011;9970;-36.854;174.870;2023-11-25T08:21:59;2.70;;;2.10;;
19643;SDS011;9970;-36.854;174.870;2023-11-25T08:24:33;3.07;;;2.67;;
19643;SDS011;9970;-36.854;174.870;2023-11-25T08:27:06;7.33;;;2.23;;
19643;SDS011;9970;-36.854;174.870;2023-11-25T08:29:39;3.93;;;1.80;;
19643;SDS011;9970;-36.854;174.870;2023-11-25T08:32:12;3.80;;;2.20;;
19643;SDS011;9970;-36.854;174.870;2023-11-25T08:34:46;6.00;;;1.90;;
19643;SDS011;9970;-36.854;174.870;2023-11-25T08:37:20;2.60;;;1.50;;
19643;SDS011;9970;-36.854;174.870;2023-11-25T08:39:57;1.70;;;1.60;;
19643;SDS011;9970;-36.854;174.870;2023-11-25T08:42:30;8.03;;;2.97;;
19643;SDS011;9970;-36.854;174.870;2023-11-25T08:45:03;7.70;;;2.40;;
19643;SDS011;9970;-36.854;174.870;2023-11-25T08:47:37;2.77;;;1.63;;
19643;SDS011;9970;-36.854;174.870;2023-11-25T08:50:11;7.10;;;1.83;;
19643;SDS011;9970;-36.854;174.870;2023-11-25T08:52:45;4.20;;;1.50;;
19643;SDS011;9970;-36.854;174.870;2023-11-25T08:55:18;2.27;;;1.70;;
19643;SDS011;9970;-36.854;174.870;2023-11-25T08:57:52;1.50;;;1.40;;
19643;SDS011;9970;-36.854;174.870;2023-11-25T09:00:25;5.37;;;1.97;;
19643;SDS011;9970;-36.854;174.870;2023-11-25T09:02:59;2.77;;;2.57;;
19643;SDS011;9970;-36.854;174.870;2023-11-25T09:05:33;13.93;;;3.30;;
19643;SDS011;9970;-36.854;174.870;2023-11-25T09:08:07;7.40;;;2.20;;
19643;SDS011;9970;-36.854;174.870;2023-11-25T09:10:40;8.60;;;2.73;;
19643;SDS011;9970;-36.854;174.870;2023-11-25T09:13:13;4.67;;;1.90;;
19643;SDS011;9970;-36.854;174.870;2023-11-25T09:15:46;4.87;;;1.70;;
19643;SDS011;9970;-36.854;174.870;2023-11-25T09:18:20;4.10;;;2.33;;
19643;SDS011;9970;-36.854;174.870;2023-11-25T09:20:53;6.90;;;1.97;;
19643;SDS011;9970;-36.854;174.870;2023-11-25T09:23:31;4.50;;;1.90;;
19643;SDS011;9970;-36.854;174.870;2023-11-25T09:26:04;5.13;;;1.87;;
19643;SDS011;9970;-36.854;174.870;2023-11-25T09:28:37;9.17;;;2.90;;
19643;SDS011;9970;-36.854;174.870;2023-11-25T09:31:10;6.67;;;2.63;;
19643;SDS011;9970;-36.854;174.870;2023-11-25T09:33:43;7.50;;;2.70;;
19643;SDS011;9970;-36.854;174.870;2023-11-25T09:36:17;3.23;;;2.00;;
19643;SDS011;9970;-36.854;174.870;2023-11-25T09:38:51;7.53;;;2.70;;
19643;SDS011;9970;-36.854;174.870;2023-11-25T09:41:24;6.03;;;2.30;;
19643;SDS011;9970;-36.854;174.870;2023-11-25T09:43:59;9.60;;;2.70;;
19643;SDS011;9970;-36.854;174.870;2023-11-25T09:46:33;11.10;;;4.00;;
19643;SDS011;9970;-36.854;174.870;2023-11-25T09:49:06;8.87;;;3.10;;
19643;SDS011;9970;-36.854;174.870;2023-11-25T09:51:40;8.20;;;3.13;;
19643;SDS011;9970;-36.854;174.870;2023-11-25T09:54:17;8.40;;;3.17;;
19643;SDS011;9970;-36.854;174.870;2023-11-25T09:56:51;6.80;;;2.13;;
19643;SDS011;9970;-36.854;174.870;2023-11-25T09:59:24;8.20;;;3.23;;
19643;SDS011;9970;-36.854;174.870;2023-11-25T10:02:01;6.47;;;3.00;;
19643;SDS011;9970;-36.854;174.870;2023-11-25T10:04:37;6.50;;;2.60;;
19643;SDS011;9970;-36.854;174.870;2023-11-25T10:07:10;4.53;;;2.50;;
19643;SDS011;9970;-36.854;174.870;2023-11-25T10:09:44;9.53;;;2.83;;
19643;SDS011;9970;-36.854;174.870;2023-11-25T10:12:19;11.67;;;3.20;;
19643;SDS011;9970;-36.854;174.870;2023-11-25T10:14:52;10.60;;;2.30;;
19643;SDS011;9970;-36.854;174.870;2023-11-25T10:17:27;20.07;;;3.17;;
19643;SDS011;9970;-36.854;174.870;2023-11-25T10:20:07;6.70;;;2.67;;
19643;SDS011;9970;-36.854;174.870;2023-11-25T10:22:46;8.50;;;3.00;;
19643;SDS011;9970;-36.854;174.870;2023-11-25T10:25:22;11.30;;;3.33;;
19643;SDS011;9970;-36.854;174.870;2023-11-25T10:27:56;7.00;;;3.00;;
19643;SDS011;9970;-36.854;174.870;2023-11-25T10:30:29;12.93;;;3.43;;
19643;SDS011;9970;-36.854;174.870;2023-11-25T10:33:06;7.60;;;3.33;;
19643;SDS011;9970;-36.854;174.870;2023-11-25T10:35:38;21.43;;;4.80;;
19643;SDS011;9970;-36.854;174.870;2023-11-25T10:38:13;8.43;;;3.03;;
19643;SDS011;9970;-36.854;174.870;2023-11-25T10:40:46;4.27;;;2.30;;
19643;SDS011;9970;-36.854;174.870;2023-11-25T10:43:20;8.77;;;2.67;;
19643;SDS011;9970;-36.854;174.870;2023-11-25T10:46:06;4.70;;;2.47;;
19643;SDS011;9970;-36.854;174.870;2023-11-25T10:48:40;7.90;;;3.00;;
19643;SDS011;9970;-36.854;174.870;2023-11-25T10:51:14;6.43;;;2.77;;
19643;SDS011;9970;-36.854;174.870;2023-11-25T10:53:48;7.40;;;2.73;;
19643;SDS011;9970;-36.854;174.870;2023-11-25T10:56:22;5.43;;;2.30;;
19643;SDS011;9970;-36.854;174.870;2023-11-25T10:58:56;4.03;;;2.70;;
19643;SDS011;9970;-36.854;174.870;2023-11-25T11:01:31;14.70;;;4.63;;
19643;SDS011;9970;-36.854;174.870;2023-11-25T11:04:26;2.13;;;2.00;;
19643;SDS011;9970;-36.854;174.870;2023-11-25T11:07:00;4.37;;;2.83;;
19643;SDS011;9970;-36.854;174.870;2023-11-25T11:09:35;6.13;;;2.67;;
19643;SDS011;9970;-36.854;174.870;2023-11-25T11:12:10;10.60;;;2.30;;
19643;SDS011;9970;-36.854;174.870;2023-11-25T11:14:47;4.13;;;2.50;;
19643;SDS011;9970;-36.854;174.870;2023-11-25T11:17:27;8.83;;;2.33;;
19643;SDS011;9970;-36.854;174.870;2023-11-25T11:20:02;4.70;;;3.00;;
19643;SDS011;9970;-36.854;174.870;2023-11-25T11:22:39;4.83;;;2.23;;
19643;SDS011;9970;-36.854;174.870;2023-11-25T11:33:50;4.90;;;3.10;;
19643;SDS011;9970;-36.854;174.870;2023-11-25T11:36:31;4.33;;;3.00;;
19643;SDS011;9970;-36.854;174.870;2023-11-25T11:39:03;10.90;;;2.93;;
19643;SDS011;9970;-36.854;174.870;2023-11-25T11:41:37;6.90;;;2.73;;
19643;SDS011;9970;-36.854;174.870;2023-11-25T11:44:10;4.93;;;2.70;;
19643;SDS011;9970;-36.854;174.870;2023-11-25T11:46:44;9.93;;;2.80;;
19643;SDS011;9970;-36.854;174.870;2023-11-25T11:49:18;8.10;;;2.70;;
19643;SDS011;9970;-36.854;174.870;2023-11-25T11:51:58;3.50;;;2.70;;
19643;SDS011;9970;-36.854;174.870;2023-11-25T11:54:33;9.40;;;4.57;;
19643;SDS011;9970;-36.854;174.870;2023-11-25T11:57:12;6.80;;;3.27;;
19643;SDS011;9970;-36.854;174.870;2023-11-25T12:02:34;4.70;;;2.70;;
19643;SDS011;9970;-36.854;174.870;2023-11-25T12:05:08;4.30;;;2.30;;
19643;SDS011;9970;-36.854;174.870;2023-11-25T12:07:43;4.23;;;2.50;;
19643;SDS011;9970;-36.854;174.870;2023-11-25T12:10:16;7.63;;;3.53;;
19643;SDS011;9970;-36.854;174.870;2023-11-25T12:12:50;5.60;;;2.53;;
19643;SDS011;9970;-36.854;174.870;2023-11-25T12:15:23;10.63;;;3.03;;
19643;SDS011;9970;-36.854;174.870;2023-11-25T12:17:56;6.70;;;2.47;;
19643;SDS011;9970;-36.854;174.870;2023-11-25T12:20:30;6.37;;;2.90;;
19643;SDS011;9970;-36.854;174.870;2023-11-25T12:23:05;9.40;;;3.97;;
19643;SDS011;9970;-36.854;174.870;2023-11-25T12:25:38;5.00;;;2.30;;
19643;SDS011;9970;-36.854;174.870;2023-11-25T12:28:12;3.97;;;2.43;;
19643;SDS011;9970;-36.854;174.870;2023-11-25T12:30:45;2.30;;;2.20;;
19643;SDS011;9970;-36.854;174.870;2023-11-25T12:33:18;11.57;;;2.97;;
19643;SDS011;9970;-36.854;174.870;2023-11-25T12:35:51;9.47;;;2.73;;
19643;SDS011;9970;-36.854;174.870;2023-11-25T12:38:25;7.30;;;2.83;;
19643;SDS011;9970;-36.854;174.870;2023-11-25T12:40:59;4.37;;;2.63;;
19643;SDS011;9970;-36.854;174.870;2023-11-25T12:46:39;11.20;;;4.50;;
19643;SDS011;9970;-36.854;174.870;2023-11-25T12:49:22;2.30;;;2.00;;
19643;SDS011;9970;-36.854;174.870;2023-11-25T12:51:55;4.23;;;2.47;;
19643;SDS011;9970;-36.854;174.870;2023-11-25T12:54:44;7.30;;;2.40;;
19643;SDS011;9970;-36.854;174.870;2023-11-25T12:57:20;2.27;;;1.90;;
19643;SDS011;9970;-36.854;174.870;2023-11-25T13:00:08;5.23;;;2.20;;
19643;SDS011;9970;-36.854;174.870;2023-11-25T13:02:46;4.60;;;2.67;;
19643;SDS011;9970;-36.854;174.870;2023-11-25T13:05:21;3.60;;;2.73;;
19643;SDS011;9970;-36.854;174.870;2023-11-25T13:07:58;5.43;;;2.23;;
19643;SDS011;9970;-36.854;174.870;2023-11-25T13:10:32;6.20;;;1.83;;
19643;SDS011;9970;-36.854;174.870;2023-11-25T13:13:06;2.50;;;2.30;;
19643;SDS011;9970;-36.854;174.870;2023-11-25T13:15:39;2.63;;;2.07;;
19643;SDS011;9970;-36.854;174.870;2023-11-25T13:18:13;1.13;;;1.13;;
19643;SDS011;9970;-36.854;174.870;2023-11-25T13:20:46;5.00;;;2.30;;
19643;SDS011;9970;-36.854;174.870;2023-11-25T13:23:20;14.53;;;3.07;;
19643;SDS011;9970;-36.854;174.870;2023-11-25T13:25:54;2.60;;;1.67;;
19643;SDS011;9970;-36.854;174.870;2023-11-25T13:28:31;1.53;;;1.43;;
19643;SDS011;9970;-36.854;174.870;2023-11-25T13:31:05;13.87;;;4.33;;
19643;SDS011;9970;-36.854;174.870;2023-11-25T13:33:39;5.77;;;2.20;;
19643;SDS011;9970;-36.854;174.870;2023-11-25T13:36:12;4.40;;;2.20;;
19643;SDS011;9970;-36.854;174.870;2023-11-25T13:38:45;4.17;;;2.63;;
19643;SDS011;9970;-36.854;174.870;2023-11-25T13:41:18;4.67;;;2.00;;
19643;SDS011;9970;-36.854;174.870;2023-11-25T13:43:51;2.70;;;2.07;;
19643;SDS011;9970;-36.854;174.870;2023-11-25T13:46:24;7.00;;;2.07;;
19643;SDS011;9970;-36.854;174.870;2023-11-25T13:48:57;3.90;;;2.23;;
19643;SDS011;9970;-36.854;174.870;2023-11-25T13:51:30;2.03;;;1.93;;
19643;SDS011;9970;-36.854;174.870;2023-11-25T13:54:04;3.80;;;1.70;;
19643;SDS011;9970;-36.854;174.870;2023-11-25T13:56:38;1.97;;;1.63;;
19643;SDS011;9970;-36.854;174.870;2023-11-25T13:59:11;1.93;;;1.70;;
19643;SDS011;9970;-36.854;174.870;2023-11-25T14:01:44;6.70;;;1.53;;
19643;SDS011;9970;-36.854;174.870;2023-11-25T14:04:18;11.73;;;2.57;;
19643;SDS011;9970;-36.854;174.870;2023-11-25T14:06:52;3.20;;;1.80;;
19643;SDS011;9970;-36.854;174.870;2023-11-25T14:09:25;4.97;;;1.87;;
19643;SDS011;9970;-36.854;174.870;2023-11-25T14:11:58;2.20;;;1.90;;
19643;SDS011;9970;-36.854;174.870;2023-11-25T14:14:32;3.53;;;1.73;;
19643;SDS011;9970;-36.854;174.870;2023-11-25T14:17:05;3.87;;;1.67;;
19643;SDS011;9970;-36.854;174.870;2023-11-25T14:19:40;3.43;;;1.47;;
19643;SDS011;9970;-36.854;174.870;2023-11-25T14:22:15;1.43;;;1.33;;
19643;SDS011;9970;-36.854;174.870;2023-11-25T14:24:48;4.07;;;1.80;;
19643;SDS011;9970;-36.854;174.870;2023-11-25T14:27:21;3.73;;;1.80;;
19643;SDS011;9970;-36.854;174.870;2023-11-25T14:29:54;1.90;;;1.80;;
19643;SDS011;9970;-36.854;174.870;2023-11-25T14:32:28;2.00;;;1.80;;
19643;SDS011;9970;-36.854;174.870;2023-11-25T14:35:02;2.00;;;1.70;;
19643;SDS011;9970;-36.854;174.870;2023-11-25T14:37:39;8.93;;;1.77;;
19643;SDS011;9970;-36.854;174.870;2023-11-25T14:40:14;3.73;;;2.20;;
19643;SDS011;9970;-36.854;174.870;2023-11-25T14:42:48;9.60;;;2.27;;
19643;SDS011;9970;-36.854;174.870;2023-11-25T14:45:21;5.47;;;2.07;;
19643;SDS011;9970;-36.854;174.870;2023-11-25T14:47:55;8.30;;;2.30;;
19643;SDS011;9970;-36.854;174.870;2023-11-25T14:50:29;4.50;;;2.03;;
19643;SDS011;9970;-36.854;174.870;2023-11-25T14:53:03;6.47;;;2.40;;
19643;SDS011;9970;-36.854;174.870;2023-11-25T14:55:36;7.70;;;1.90;;
19643;SDS011;9970;-36.854;174.870;2023-11-25T14:58:10;3.50;;;1.80;;
19643;SDS011;9970;-36.854;174.870;2023-11-25T15:00:43;5.70;;;2.67;;
19643;SDS011;9970;-36.854;174.870;2023-11-25T15:03:16;6.03;;;2.70;;
19643;SDS011;9970;-36.854;174.870;2023-11-25T15:05:49;3.80;;;1.90;;
19643;SDS011;9970;-36.854;174.870;2023-11-25T15:08:22;5.90;;;1.90;;
19643;SDS011;9970;-36.854;174.870;2023-11-25T15:10:55;7.00;;;2.57;;
19643;SDS011;9970;-36.854;174.870;2023-11-25T15:13:28;1.90;;;1.80;;
19643;SDS011;9970;-36.854;174.870;2023-11-25T15:16:01;3.27;;;1.73;;